createdAt,value
2023-05-23T00:02:08.632Z,2.35
2023-05-23T00:04:38.718Z,1.88
2023-05-23T00:07:06.079Z,2.05
2023-05-23T00:09:33.024Z,1.65
2023-05-23T00:12:00.848Z,2.10
2023-05-23T00:14:31.418Z,2.20
2023-05-23T00:16:59.655Z,1.77
2023-05-23T00:19:26.684Z,2.22
2023-05-23T00:21:56.945Z,1.73
2023-05-23T00:24:24.530Z,2.53
2023-05-23T00:26:51.829Z,1.92
2023-05-23T00:29:19.689Z,1.83
2023-05-23T00:31:47.339Z,2.10
2023-05-23T00:34:15.494Z,1.77
2023-05-23T00:36:43.823Z,2.10
2023-05-23T00:39:19.137Z,2.28
2023-05-23T00:41:53.101Z,1.77
2023-05-23T00:44:21.563Z,2.17
2023-05-23T00:46:55.652Z,1.92
2023-05-23T00:49:23.000Z,2.28
2023-05-23T00:51:51.644Z,2.22
2023-05-23T00:54:22.200Z,2.10
2023-05-23T00:56:49.574Z,2.33
2023-05-23T01:04:54.292Z,2.10
2023-05-23T01:07:22.208Z,2.15
2023-05-23T01:09:49.806Z,2.22
2023-05-23T01:12:19.978Z,2.08
2023-05-23T01:15:10.000Z,1.85
2023-05-23T01:18:14.501Z,2.00
2023-05-23T01:20:50.746Z,2.28
2023-05-23T01:23:55.856Z,2.25
2023-05-23T01:26:35.175Z,2.10
2023-05-23T01:29:10.540Z,2.03
2023-05-23T01:31:43.244Z,1.63
2023-05-23T01:34:10.931Z,2.15
2023-05-23T01:36:42.161Z,1.90
2023-05-23T01:39:10.590Z,1.60
2023-05-23T01:41:37.575Z,2.10
2023-05-23T01:44:06.268Z,2.50
2023-05-23T01:46:34.436Z,2.25
2023-05-23T01:49:03.553Z,2.08
2023-05-23T01:51:34.197Z,2.30
2023-05-23T01:54:02.136Z,2.00
2023-05-23T01:56:30.490Z,2.10
2023-05-23T01:58:57.948Z,2.00
2023-05-23T02:01:25.337Z,1.85
2023-05-23T02:03:52.641Z,2.53
2023-05-23T02:06:19.696Z,2.38
2023-05-23T02:08:47.504Z,2.60
2023-05-23T02:11:14.729Z,2.60
2023-05-23T02:13:42.118Z,2.58
2023-05-23T02:16:09.064Z,2.40
2023-05-23T02:18:38.285Z,2.38
2023-05-23T02:21:06.068Z,2.47
2023-05-23T02:23:33.442Z,2.53
2023-05-23T02:26:00.395Z,2.20
2023-05-23T02:28:27.951Z,2.22
2023-05-23T02:30:54.917Z,2.08
2023-05-23T02:33:22.350Z,1.90
2023-05-23T02:35:51.711Z,2.00
2023-05-23T02:38:20.745Z,2.28
2023-05-23T02:40:47.776Z,2.05
2023-05-23T02:43:15.588Z,2.10
2023-05-23T02:45:42.900Z,2.28
2023-05-23T02:48:12.126Z,2.40
2023-05-23T02:50:39.142Z,2.50
2023-05-23T02:53:06.496Z,2.17
2023-05-23T02:55:33.518Z,2.30
2023-05-23T02:58:00.996Z,2.08
2023-05-23T03:00:28.036Z,2.25
2023-05-23T03:02:57.634Z,1.90
2023-05-23T03:05:24.752Z,2.40
2023-05-23T03:07:54.868Z,2.17
2023-05-23T03:10:21.936Z,2.05
2023-05-23T03:12:49.201Z,2.47
2023-05-23T03:15:17.321Z,2.10
2023-05-23T03:17:45.578Z,2.40
2023-05-23T03:20:15.706Z,2.45
2023-05-23T03:22:45.630Z,2.55
2023-05-23T03:25:12.920Z,2.65
2023-05-23T03:27:40.249Z,2.50
2023-05-23T03:30:08.009Z,2.75
2023-05-23T03:32:36.174Z,3.10
2023-05-23T03:35:03.318Z,2.83
2023-05-23T03:37:30.593Z,2.58
2023-05-23T03:39:57.620Z,2.55
2023-05-23T03:42:25.137Z,2.63
2023-05-23T03:44:52.477Z,3.15
2023-05-23T03:47:24.281Z,2.83
2023-05-23T03:49:52.298Z,3.40
2023-05-23T03:52:19.733Z,3.03
2023-05-23T03:54:46.864Z,3.45
2023-05-23T03:57:14.146Z,3.30
2023-05-23T03:59:41.326Z,3.20
2023-05-23T04:02:11.925Z,3.15
2023-05-23T04:04:39.714Z,3.35
2023-05-23T04:07:09.219Z,3.00
2023-05-23T04:09:36.803Z,3.58
2023-05-23T04:12:09.591Z,3.45
2023-05-23T04:14:37.454Z,3.03
2023-05-23T04:17:05.869Z,3.67
2023-05-23T04:19:33.587Z,3.40
2023-05-23T04:22:01.127Z,3.33
2023-05-23T04:24:29.147Z,3.13
2023-05-23T04:26:56.429Z,2.88
2023-05-23T04:29:26.645Z,3.00
2023-05-23T04:31:55.602Z,3.58
2023-05-23T04:34:22.843Z,3.17
2023-05-23T04:36:50.409Z,2.97
2023-05-23T04:39:17.693Z,3.30
2023-05-23T04:42:07.444Z,4.03
2023-05-23T04:45:07.222Z,2.78
2023-05-23T04:48:01.183Z,2.78
2023-05-23T04:50:43.661Z,3.00
2023-05-23T04:53:11.010Z,2.65
2023-05-23T04:55:39.319Z,2.50
2023-05-23T04:58:13.062Z,2.30
2023-05-23T05:00:40.474Z,2.47
2023-05-23T05:03:09.965Z,2.60
2023-05-23T05:05:41.846Z,2.60
2023-05-23T05:08:09.146Z,2.40
2023-05-23T05:10:36.175Z,3.20
2023-05-23T05:13:03.912Z,2.50
2023-05-23T05:15:39.897Z,2.08
2023-05-23T05:18:07.314Z,2.20
2023-05-23T05:20:34.536Z,2.08
2023-05-23T05:23:02.032Z,2.40
2023-05-23T05:25:32.189Z,2.30
2023-05-23T05:28:05.448Z,2.13
2023-05-23T05:30:38.911Z,1.90
2023-05-23T05:33:07.977Z,2.13
2023-05-23T05:35:35.803Z,2.33
2023-05-23T05:38:05.053Z,2.40
2023-05-23T05:40:32.444Z,1.85
2023-05-23T05:43:00.878Z,2.08
2023-05-23T05:45:28.304Z,2.15
2023-05-23T05:47:55.824Z,1.90
2023-05-23T05:50:24.640Z,2.03
2023-05-23T05:52:52.288Z,1.70
2023-05-23T05:55:19.431Z,2.00
2023-05-23T05:57:52.050Z,1.90
2023-05-23T06:00:19.549Z,1.88
2023-05-23T06:02:51.995Z,1.95
2023-05-23T06:05:37.842Z,1.73
2023-05-23T06:08:05.370Z,1.80
2023-05-23T06:10:32.300Z,2.08
2023-05-23T06:13:00.051Z,1.55
2023-05-23T06:15:27.278Z,1.85
2023-05-23T06:17:54.561Z,1.70
2023-05-23T06:20:22.232Z,1.70
2023-05-23T06:22:50.186Z,1.65
2023-05-23T06:25:17.974Z,1.45
2023-05-23T06:27:47.675Z,1.95
2023-05-23T06:30:15.150Z,1.65
2023-05-23T06:32:42.541Z,1.60
2023-05-23T06:35:09.989Z,1.55
2023-05-23T06:37:37.937Z,2.42
2023-05-23T06:40:05.618Z,1.73
2023-05-23T06:42:32.952Z,1.55
2023-05-23T06:45:16.456Z,1.70
2023-05-23T06:47:45.726Z,1.42
2023-05-23T06:50:12.953Z,1.63
2023-05-23T06:52:42.816Z,1.70
2023-05-23T06:55:10.430Z,1.58
2023-05-23T06:57:39.737Z,1.80
2023-05-23T07:00:07.370Z,1.70
2023-05-23T07:02:40.698Z,1.58
2023-05-23T07:05:08.430Z,1.55
2023-05-23T07:07:47.474Z,1.70
2023-05-23T07:10:15.730Z,1.90
2023-05-23T07:12:44.598Z,1.70
2023-05-23T07:15:12.771Z,1.88
2023-05-23T07:17:50.629Z,1.48
2023-05-23T07:20:17.933Z,2.00
2023-05-23T07:22:47.102Z,1.60
2023-05-23T07:25:16.024Z,1.25
2023-05-23T07:27:43.315Z,1.50
2023-05-23T07:30:10.479Z,1.40
2023-05-23T07:32:38.809Z,1.65
2023-05-23T07:35:08.129Z,3.03
2023-05-23T07:37:35.664Z,1.70
2023-05-23T07:40:04.699Z,1.80
2023-05-23T07:42:31.947Z,1.30
2023-05-23T07:44:58.889Z,1.52
2023-05-23T07:47:26.443Z,1.42
2023-05-23T07:49:53.866Z,1.35
2023-05-23T07:52:21.758Z,1.70
2023-05-23T07:54:48.822Z,1.38
2023-05-23T07:57:17.963Z,1.48
2023-05-23T07:59:45.525Z,1.45
2023-05-23T08:02:12.954Z,1.25
2023-05-23T08:04:41.455Z,1.50
2023-05-23T08:07:09.866Z,1.20
2023-05-23T08:09:50.700Z,1.10
2023-05-23T08:12:20.470Z,1.40
2023-05-23T08:14:52.474Z,1.30
2023-05-23T08:17:40.395Z,1.50
2023-05-23T08:20:10.077Z,1.25
2023-05-23T08:22:37.938Z,1.25
2023-05-23T08:25:06.636Z,1.27
2023-05-23T08:27:37.022Z,1.20
2023-05-23T08:30:13.141Z,1.65
2023-05-23T08:32:40.517Z,1.23
2023-05-23T08:35:07.918Z,1.77
2023-05-23T08:37:36.462Z,1.20
2023-05-23T08:40:04.020Z,1.30
2023-05-23T08:42:51.587Z,1.50
2023-05-23T08:45:20.090Z,1.50
2023-05-23T08:47:48.424Z,1.70
2023-05-23T08:50:20.960Z,1.40
2023-05-23T08:52:56.430Z,1.90
2023-05-23T08:55:29.142Z,1.55
2023-05-23T08:58:03.899Z,1.38
2023-05-23T09:00:43.173Z,1.60
2023-05-23T09:03:12.495Z,1.17
2023-05-23T09:05:54.340Z,1.35
2023-05-23T09:08:24.552Z,1.35
2023-05-23T09:10:56.548Z,1.50
2023-05-23T09:13:26.038Z,2.00
2023-05-23T09:16:06.313Z,1.48
2023-05-23T09:18:41.782Z,1.55
2023-05-23T09:21:11.558Z,1.42
2023-05-23T09:23:45.510Z,1.83
2023-05-23T09:26:13.502Z,1.55
2023-05-23T09:28:42.995Z,1.45
2023-05-23T09:31:10.732Z,1.77
2023-05-23T09:33:50.204Z,1.85
2023-05-23T09:36:19.432Z,1.85
2023-05-23T09:38:48.971Z,1.67
2023-05-23T09:41:16.019Z,1.85
2023-05-23T09:43:55.086Z,1.92
2023-05-23T09:46:22.747Z,1.65
2023-05-23T09:48:52.278Z,1.63
2023-05-23T09:51:21.408Z,1.73
2023-05-23T09:53:49.368Z,1.60
2023-05-23T09:56:17.545Z,1.80
2023-05-23T09:58:49.326Z,1.55
2023-05-23T10:01:17.551Z,1.75
2023-05-23T10:04:00.245Z,1.80
2023-05-23T10:06:54.958Z,1.60
2023-05-23T10:09:23.446Z,1.70
2023-05-23T10:12:27.931Z,2.08
2023-05-23T10:14:58.281Z,1.85
2023-05-23T10:17:33.022Z,1.75
2023-05-23T10:20:02.816Z,1.42
2023-05-23T10:22:30.028Z,1.55
2023-05-23T10:24:57.444Z,1.73
2023-05-23T10:27:24.530Z,1.58
2023-05-23T10:29:52.038Z,1.67
2023-05-23T10:32:19.343Z,1.88
2023-05-23T10:34:52.558Z,1.70
2023-05-23T10:37:56.208Z,1.75
2023-05-23T10:40:34.938Z,1.83
2023-05-23T10:43:14.070Z,1.83
2023-05-23T10:45:45.496Z,2.13
2023-05-23T10:48:31.422Z,1.85
2023-05-23T10:51:04.481Z,1.77
2023-05-23T10:53:36.314Z,1.90
2023-05-23T10:56:07.942Z,1.70
2023-05-23T10:58:36.233Z,1.77
2023-05-23T11:01:06.684Z,1.77
2023-05-23T11:03:37.984Z,2.03
2023-05-23T11:06:06.422Z,1.70
2023-05-23T11:11:12.799Z,1.67
2023-05-23T11:13:57.238Z,1.65
2023-05-23T11:16:32.534Z,1.77
2023-05-23T11:19:18.762Z,1.88
2023-05-23T11:21:49.914Z,1.60
2023-05-23T11:24:17.770Z,1.55
2023-05-23T11:27:12.436Z,1.50
2023-05-23T11:29:39.509Z,1.58
2023-05-23T11:32:17.406Z,1.50
2023-05-23T11:34:44.742Z,1.50
2023-05-23T11:37:12.146Z,1.23
2023-05-23T11:39:40.546Z,1.70
2023-05-23T11:42:07.832Z,1.45
2023-05-23T11:44:34.803Z,1.52
2023-05-23T11:47:11.078Z,1.55
2023-05-23T11:49:40.588Z,1.38
2023-05-23T11:52:07.997Z,1.80
2023-05-23T11:54:34.952Z,1.40
2023-05-23T11:57:02.801Z,1.30
2023-05-23T11:59:29.924Z,1.55
2023-05-23T12:01:57.187Z,1.70
2023-05-23T12:04:25.931Z,1.80
2023-05-23T12:06:53.353Z,1.48
2023-05-23T12:09:20.540Z,1.90
2023-05-23T12:11:49.225Z,1.45
2023-05-23T12:14:17.865Z,1.65
2023-05-23T12:16:46.966Z,1.70
2023-05-23T12:19:15.268Z,1.35
2023-05-23T12:21:47.407Z,1.52
2023-05-23T12:24:18.433Z,1.10
2023-05-23T12:26:51.378Z,1.45
2023-05-23T12:29:22.473Z,1.45
2023-05-23T12:31:50.855Z,1.23
2023-05-23T12:34:18.156Z,1.35
2023-05-23T12:36:49.366Z,1.55
2023-05-23T12:39:25.228Z,1.40
2023-05-23T12:41:52.621Z,1.83
2023-05-23T12:44:19.667Z,1.25
2023-05-23T12:46:48.272Z,1.30
2023-05-23T12:49:15.344Z,1.42
2023-05-23T12:51:42.727Z,1.38
2023-05-23T12:54:09.709Z,1.10
2023-05-23T12:56:37.162Z,1.10
2023-05-23T12:59:04.280Z,0.93
2023-05-23T13:01:31.666Z,1.27
2023-05-23T13:03:58.767Z,1.10
2023-05-23T13:06:26.749Z,1.13
2023-05-23T13:08:54.787Z,1.00
2023-05-23T13:11:25.002Z,1.20
2023-05-23T13:13:52.806Z,1.30
2023-05-23T13:16:20.527Z,1.10
2023-05-23T13:18:47.585Z,1.35
2023-05-23T13:21:14.835Z,1.20
2023-05-23T13:23:41.810Z,1.10
2023-05-23T13:26:09.108Z,1.08
2023-05-23T13:28:36.157Z,1.20
2023-05-23T13:31:03.753Z,1.00
2023-05-23T13:33:31.062Z,1.30
2023-05-23T13:35:58.735Z,1.30
2023-05-23T13:38:27.651Z,1.30
2023-05-23T13:40:55.086Z,1.38
2023-05-23T13:43:22.159Z,1.48
2023-05-23T13:45:49.469Z,1.02
2023-05-23T13:48:16.539Z,1.30
2023-05-23T13:50:44.129Z,1.20
2023-05-23T13:53:15.349Z,1.33
2023-05-23T13:55:42.817Z,1.10
2023-05-23T13:58:10.201Z,1.40
2023-05-23T14:00:37.752Z,1.27
2023-05-23T14:03:05.070Z,1.25
2023-05-23T14:05:32.372Z,1.25
2023-05-23T14:07:59.843Z,1.15
2023-05-23T14:10:26.942Z,1.02
2023-05-23T14:12:54.459Z,1.17
2023-05-23T14:15:21.601Z,1.42
2023-05-23T14:17:49.012Z,1.40
2023-05-23T14:20:16.132Z,1.00
2023-05-23T14:22:43.443Z,1.05
2023-05-23T14:25:10.536Z,1.00
2023-05-23T14:27:37.957Z,1.40
2023-05-23T14:30:05.488Z,1.10
2023-05-23T14:32:38.679Z,1.20
2023-05-23T14:35:07.224Z,1.30
2023-05-23T14:37:34.587Z,1.17
2023-05-23T14:40:01.724Z,1.27
2023-05-23T14:42:28.970Z,1.20
2023-05-23T14:44:55.850Z,1.20
2023-05-23T14:47:23.631Z,1.40
2023-05-23T14:49:50.695Z,1.40
2023-05-23T14:52:18.878Z,1.40
2023-05-23T14:54:45.970Z,1.40
2023-05-23T14:57:13.290Z,1.40
2023-05-23T14:59:40.520Z,1.40
2023-05-23T15:02:08.688Z,1.30
2023-05-23T15:04:36.094Z,1.38
2023-05-23T15:07:03.740Z,1.27
2023-05-23T15:09:30.956Z,1.30
2023-05-23T15:11:58.240Z,1.40
2023-05-23T15:14:29.537Z,1.23
2023-05-23T15:16:57.227Z,1.40
2023-05-23T15:19:24.284Z,1.27
2023-05-23T15:21:52.047Z,1.27
2023-05-23T15:24:19.333Z,1.60
2023-05-23T15:26:47.246Z,1.27
2023-05-23T15:29:15.542Z,1.38
2023-05-23T15:31:42.923Z,1.35
2023-05-23T15:34:09.957Z,1.33
2023-05-23T15:36:37.285Z,1.35
2023-05-23T15:39:05.415Z,1.20
2023-05-23T15:41:32.762Z,1.33
2023-05-23T15:43:59.725Z,0.93
2023-05-23T15:46:27.031Z,1.40
2023-05-23T15:48:54.092Z,1.23
2023-05-23T15:51:21.342Z,1.27
2023-05-23T15:54:00.580Z,1.05
2023-05-23T15:56:28.851Z,1.17
2023-05-23T15:58:55.916Z,1.13
2023-05-23T16:01:23.334Z,1.35
2023-05-23T16:03:50.549Z,1.27
2023-05-23T16:06:17.779Z,1.25
2023-05-23T16:08:44.871Z,1.52
2023-05-23T16:11:12.285Z,1.27
2023-05-23T16:13:39.260Z,1.30
2023-05-23T16:16:06.888Z,1.30
2023-05-23T16:18:34.090Z,1.23
2023-05-23T16:21:01.968Z,1.17
2023-05-23T16:23:28.914Z,1.33
2023-05-23T16:25:56.179Z,1.13
2023-05-23T16:28:23.285Z,1.20
2023-05-23T16:30:50.666Z,1.60
2023-05-23T16:33:17.747Z,1.48
2023-05-23T16:35:45.064Z,1.30
2023-05-23T16:38:12.141Z,1.50
2023-05-23T16:40:39.547Z,1.60
2023-05-23T16:43:06.660Z,1.15
2023-05-23T16:45:34.097Z,1.40
2023-05-23T16:48:01.236Z,1.58
2023-05-23T16:50:28.633Z,1.40
2023-05-23T16:52:55.555Z,1.27
2023-05-23T16:55:23.009Z,1.67
2023-05-23T16:57:49.948Z,1.48
2023-05-23T17:00:20.373Z,1.42
2023-05-23T17:02:47.586Z,1.80
2023-05-23T17:05:15.345Z,1.20
2023-05-23T17:07:42.923Z,1.63
2023-05-23T17:10:11.137Z,1.33
2023-05-23T17:12:38.480Z,1.42
2023-05-23T17:15:07.290Z,1.60
2023-05-23T17:17:34.672Z,1.73
2023-05-23T17:20:01.988Z,1.98
2023-05-23T17:22:28.907Z,1.63
2023-05-23T17:24:56.323Z,1.85
2023-05-23T17:27:23.831Z,1.35
2023-05-23T17:29:51.309Z,1.55
2023-05-23T17:32:19.962Z,1.73
2023-05-23T17:34:47.236Z,2.17
2023-05-23T17:37:15.263Z,1.92
2023-05-23T17:39:43.520Z,2.47
2023-05-23T17:42:11.014Z,2.30
2023-05-23T17:44:38.486Z,2.10
2023-05-23T17:47:06.081Z,2.20
2023-05-23T17:49:33.705Z,2.00
2023-05-23T17:52:04.738Z,1.95
2023-05-23T17:54:32.238Z,1.77
2023-05-23T17:56:59.278Z,2.20
2023-05-23T17:59:28.009Z,2.20
2023-05-23T18:01:55.298Z,1.90
2023-05-23T18:04:24.481Z,2.63
2023-05-23T18:06:52.080Z,2.30
2023-05-23T18:09:19.375Z,1.92
2023-05-23T18:11:46.997Z,2.38
2023-05-23T18:14:14.353Z,2.47
2023-05-23T18:16:41.996Z,2.47
2023-05-23T18:19:09.371Z,3.05
2023-05-23T18:21:36.395Z,3.90
2023-05-23T18:24:04.137Z,3.08
2023-05-23T18:26:31.161Z,4.22
2023-05-23T18:29:00.985Z,4.25
2023-05-23T18:31:28.031Z,4.35
2023-05-23T18:33:55.414Z,4.30
2023-05-23T18:36:22.477Z,4.20
2023-05-23T18:38:49.756Z,4.45
2023-05-23T18:41:16.841Z,3.38
2023-05-23T18:43:44.198Z,4.03
2023-05-23T18:46:11.335Z,3.85
2023-05-23T18:48:39.050Z,3.58
2023-05-23T18:51:07.008Z,3.42
2023-05-23T18:53:34.562Z,3.38
2023-05-23T18:56:02.135Z,3.90
2023-05-23T18:58:29.558Z,3.50
2023-05-23T19:00:59.946Z,3.40
2023-05-23T19:03:27.731Z,3.28
2023-05-23T19:05:59.633Z,3.63
2023-05-23T19:08:29.015Z,3.05
2023-05-23T19:10:56.221Z,2.90
2023-05-23T19:13:23.862Z,2.97
2023-05-23T19:15:50.852Z,2.90
2023-05-23T19:18:19.492Z,2.50
2023-05-23T19:20:47.932Z,3.13
2023-05-23T19:23:15.398Z,3.40
2023-05-23T19:25:42.507Z,3.00
2023-05-23T19:28:09.938Z,3.33
2023-05-23T19:30:38.414Z,2.97
2023-05-23T19:33:05.872Z,2.80
2023-05-23T19:35:33.043Z,3.38
2023-05-23T19:38:01.418Z,2.65
2023-05-23T19:40:28.379Z,2.20
2023-05-23T19:42:55.732Z,2.60
2023-05-23T19:45:22.954Z,2.53
2023-05-23T19:47:50.370Z,2.70
2023-05-23T19:50:17.389Z,2.83
2023-05-23T19:52:44.722Z,2.50
2023-05-23T19:55:11.695Z,2.50
2023-05-23T19:57:38.996Z,3.00
2023-05-23T20:00:07.136Z,2.40
2023-05-23T20:02:34.466Z,2.67
2023-05-23T20:05:01.553Z,2.50
2023-05-23T20:07:28.946Z,2.72
2023-05-23T20:09:56.281Z,2.20
2023-05-23T20:12:23.960Z,2.30
2023-05-23T20:14:50.887Z,2.30
2023-05-23T20:17:18.926Z,2.13
2023-05-23T20:19:46.970Z,2.45
2023-05-23T20:22:14.329Z,2.25
2023-05-23T20:24:41.331Z,2.10
2023-05-23T20:27:08.814Z,2.17
2023-05-23T20:29:35.947Z,1.92
2023-05-23T20:32:03.769Z,2.70
2023-05-23T20:34:31.814Z,2.33
2023-05-23T20:36:59.063Z,2.03
2023-05-23T20:39:25.987Z,1.92
2023-05-23T20:41:53.721Z,2.47
2023-05-23T20:44:20.781Z,2.30
2023-05-23T20:46:47.997Z,2.50
2023-05-23T20:49:15.857Z,2.42
2023-05-23T20:51:43.428Z,2.10
2023-05-23T20:54:10.438Z,2.30
2023-05-23T20:56:37.748Z,2.53
2023-05-23T20:59:04.864Z,2.25
2023-05-23T21:01:32.976Z,2.20
2023-05-23T21:04:00.810Z,2.03
2023-05-23T21:06:28.183Z,2.33
2023-05-23T21:08:55.044Z,2.30
2023-05-23T21:11:23.231Z,2.00
2023-05-23T21:13:50.220Z,2.25
2023-05-23T21:16:17.790Z,2.20
2023-05-23T21:18:44.776Z,2.40
2023-05-23T21:21:12.059Z,1.88
2023-05-23T21:23:39.100Z,2.50
2023-05-23T21:26:06.781Z,2.70
2023-05-23T21:28:33.665Z,2.58
2023-05-23T21:31:03.397Z,2.80
2023-05-23T21:33:30.524Z,2.38
2023-05-23T21:35:59.338Z,2.50
2023-05-23T21:38:29.488Z,2.45
2023-05-23T21:40:56.801Z,3.00
2023-05-23T21:43:23.712Z,2.58
2023-05-23T21:45:51.051Z,2.45
2023-05-23T21:48:18.145Z,2.45
2023-05-23T21:50:45.546Z,2.75
2023-05-23T21:53:12.486Z,2.83
2023-05-23T21:55:39.762Z,2.13
2023-05-23T21:58:06.718Z,2.70
2023-05-23T22:00:33.945Z,2.65
2023-05-23T22:03:00.977Z,2.00
2023-05-23T22:05:28.346Z,2.38
2023-05-23T22:07:55.340Z,2.28
2023-05-23T22:10:22.696Z,2.50
2023-05-23T22:12:49.680Z,2.60
2023-05-23T22:15:16.951Z,2.38
2023-05-23T22:17:46.033Z,2.35
2023-05-23T22:20:16.109Z,2.67
2023-05-23T22:22:43.206Z,2.65
2023-05-23T22:25:10.565Z,2.40
2023-05-23T22:27:37.473Z,2.08
2023-05-23T22:30:05.666Z,2.38
2023-05-23T22:32:32.788Z,2.38
2023-05-23T22:35:00.111Z,2.40
2023-05-23T22:37:27.160Z,2.70
2023-05-23T22:39:54.374Z,2.75
2023-05-23T22:42:21.321Z,2.33
2023-05-23T22:44:48.584Z,2.30
2023-05-23T22:47:15.707Z,2.55
2023-05-23T22:49:43.632Z,2.70
2023-05-23T22:52:10.997Z,2.33
2023-05-23T22:54:38.587Z,2.45
2023-05-23T22:57:05.599Z,2.55
2023-05-23T22:59:32.946Z,2.58
2023-05-23T23:01:59.876Z,2.70
2023-05-23T23:04:31.071Z,2.70
2023-05-23T23:06:59.351Z,2.65
2023-05-23T23:09:26.997Z,2.67
2023-05-23T23:11:54.580Z,2.42
2023-05-23T23:14:21.855Z,2.75
2023-05-23T23:16:49.902Z,2.90
2023-05-23T23:19:17.920Z,2.33
2023-05-23T23:21:44.956Z,2.42
2023-05-23T23:24:13.691Z,2.90
2023-05-23T23:26:40.789Z,2.80
2023-05-23T23:29:08.398Z,2.47
2023-05-23T23:31:35.723Z,2.50
2023-05-23T23:34:02.927Z,2.65
2023-05-23T23:36:30.127Z,2.63
2023-05-23T23:38:57.384Z,2.50
2023-05-23T23:41:24.386Z,3.05
2023-05-23T23:43:51.990Z,2.60
2023-05-23T23:46:20.992Z,2.33
2023-05-23T23:48:48.395Z,2.53
2023-05-23T23:51:15.416Z,2.35
2023-05-23T23:53:42.784Z,2.60
2023-05-23T23:56:10.531Z,2.47
2023-05-23T23:58:37.787Z,2.55
